createdAt,value
2022-10-22T00:00:34.151Z,10.47
2022-10-22T00:03:01.792Z,10.48
2022-10-22T00:05:29.169Z,10.59
2022-10-22T00:07:56.596Z,10.70
2022-10-22T00:10:24.201Z,10.76
2022-10-22T00:12:51.543Z,10.95
2022-10-22T00:15:19.065Z,11.34
2022-10-22T00:17:47.129Z,11.25
2022-10-22T00:20:14.905Z,11.34
2022-10-22T00:22:42.292Z,11.06
2022-10-22T00:25:09.926Z,10.66
2022-10-22T00:27:37.420Z,10.64
2022-10-22T00:30:05.312Z,10.75
2022-10-22T00:32:32.931Z,10.88
2022-10-22T00:35:00.271Z,10.50
2022-10-22T00:37:27.605Z,10.42
2022-10-22T00:39:55.193Z,10.31
2022-10-22T00:42:25.829Z,10.40
2022-10-22T00:45:11.529Z,10.38
2022-10-22T00:48:02.111Z,11.00
2022-10-22T00:50:42.486Z,10.72
2022-10-22T00:53:22.467Z,10.29
2022-10-22T00:55:52.939Z,10.10
2022-10-22T00:58:23.365Z,10.23
2022-10-22T01:00:50.735Z,10.14
2022-10-22T01:03:18.090Z,11.18
2022-10-22T01:05:58.650Z,11.42
2022-10-22T01:08:47.356Z,11.62
2022-10-22T01:11:53.482Z,11.60
2022-10-22T01:14:59.241Z,11.30
2022-10-22T01:17:35.886Z,11.51
2022-10-22T01:20:16.106Z,11.68
2022-10-22T01:22:57.984Z,11.08
2022-10-22T01:25:35.084Z,10.64
2022-10-22T01:28:38.248Z,10.34
2022-10-22T01:31:06.171Z,10.30
2022-10-22T01:33:33.976Z,10.19
2022-10-22T01:36:01.659Z,10.23
2022-10-22T01:38:29.767Z,10.37
2022-10-22T01:40:58.303Z,10.08
2022-10-22T01:43:25.639Z,9.94
2022-10-22T01:45:57.076Z,9.73
2022-10-22T01:48:43.307Z,9.62
2022-10-22T01:51:16.452Z,9.55
2022-10-22T01:53:53.104Z,9.80
2022-10-22T01:56:45.872Z,10.02
2022-10-22T01:59:42.927Z,10.14
2022-10-22T02:02:44.653Z,10.19
2022-10-22T02:05:23.935Z,10.04
2022-10-22T02:07:54.798Z,10.10
2022-10-22T02:10:22.926Z,10.13
2022-10-22T02:12:52.586Z,10.85
2022-10-22T02:15:20.980Z,11.56
2022-10-22T02:17:49.480Z,12.07
2022-10-22T02:20:19.868Z,12.67
2022-10-22T02:22:47.549Z,12.92
2022-10-22T02:25:15.219Z,12.58
2022-10-22T02:27:58.466Z,12.41
2022-10-22T02:30:26.368Z,12.91
2022-10-22T02:32:59.501Z,12.58
2022-10-22T02:35:28.133Z,12.47
2022-10-22T02:37:56.639Z,12.34
2022-10-22T02:40:24.407Z,11.48
2022-10-22T02:42:52.077Z,10.89
2022-10-22T02:45:20.111Z,11.07
2022-10-22T02:47:47.638Z,11.44
2022-10-22T02:50:15.255Z,11.27
2022-10-22T02:52:42.912Z,11.14
2022-10-22T02:55:10.579Z,10.97
2022-10-22T02:57:38.486Z,11.40
2022-10-22T03:00:07.828Z,11.85
2022-10-22T03:02:35.405Z,12.19
2022-10-22T03:05:03.867Z,12.19
2022-10-22T03:07:31.220Z,12.13
2022-10-22T03:09:58.548Z,11.96
2022-10-22T03:12:26.191Z,12.23
2022-10-22T03:14:53.552Z,12.18
2022-10-22T03:17:20.941Z,12.19
2022-10-22T03:19:48.539Z,11.98
2022-10-22T03:22:20.097Z,11.94
2022-10-22T03:24:49.391Z,12.47
2022-10-22T03:27:18.957Z,12.36
2022-10-22T03:29:46.983Z,12.09
2022-10-22T03:32:14.299Z,12.59
2022-10-22T03:34:41.901Z,12.30
2022-10-22T03:37:09.379Z,11.14
2022-10-22T03:39:37.308Z,10.05
2022-10-22T03:42:05.776Z,10.03
2022-10-22T03:44:33.216Z,9.32
2022-10-22T03:47:02.642Z,8.70
2022-10-22T03:49:30.594Z,8.57
2022-10-22T03:51:58.021Z,8.72
2022-10-22T03:54:25.418Z,9.17
2022-10-22T03:56:53.025Z,9.19
2022-10-22T03:59:20.390Z,10.27
2022-10-22T04:01:47.736Z,11.02
2022-10-22T04:04:15.349Z,11.66
2022-10-22T04:06:42.700Z,11.88
2022-10-22T04:09:10.088Z,11.92
2022-10-22T04:11:37.703Z,11.66
2022-10-22T04:14:05.228Z,10.67
2022-10-22T04:16:32.923Z,10.86
2022-10-22T04:19:00.509Z,11.44
2022-10-22T04:21:27.950Z,11.70
2022-10-22T04:23:55.268Z,12.19
2022-10-22T04:26:22.865Z,11.74
2022-10-22T04:28:52.675Z,12.13
2022-10-22T04:31:22.169Z,11.92
2022-10-22T04:33:59.354Z,10.93
2022-10-22T04:36:28.500Z,10.56
2022-10-22T04:39:00.974Z,10.21
2022-10-22T04:41:38.824Z,9.91
2022-10-22T04:44:08.191Z,10.03
2022-10-22T04:46:38.279Z,10.11
2022-10-22T04:49:05.871Z,8.95
2022-10-22T04:51:33.241Z,8.31
2022-10-22T04:54:00.586Z,8.25
2022-10-22T04:56:29.974Z,8.38
2022-10-22T04:58:58.703Z,8.55
2022-10-22T05:01:28.678Z,8.28
2022-10-22T05:03:58.249Z,8.22
2022-10-22T05:06:26.101Z,8.25
2022-10-22T05:08:55.679Z,8.44
2022-10-22T05:11:27.924Z,8.88
2022-10-22T05:13:57.049Z,8.98
2022-10-22T05:16:25.121Z,9.13
2022-10-22T05:18:53.342Z,9.40
2022-10-22T05:21:21.186Z,9.99
2022-10-22T05:23:50.314Z,10.56
2022-10-22T05:26:20.118Z,10.79
2022-10-22T05:28:51.123Z,11.17
2022-10-22T05:31:19.090Z,10.56
2022-10-22T05:33:46.639Z,10.60
2022-10-22T05:36:16.768Z,11.04
2022-10-22T05:38:44.439Z,10.81
2022-10-22T05:41:20.441Z,10.43
2022-10-22T05:43:48.172Z,10.32
2022-10-22T05:46:22.259Z,10.38
2022-10-22T05:48:56.152Z,10.51
2022-10-22T05:51:24.589Z,10.26
2022-10-22T05:53:57.466Z,10.11
2022-10-22T05:56:26.690Z,10.27
2022-10-22T05:58:54.882Z,10.07
2022-10-22T06:01:23.671Z,10.40
2022-10-22T06:03:54.697Z,10.57
2022-10-22T06:06:27.668Z,10.92
2022-10-22T06:08:56.324Z,11.12
2022-10-22T06:11:24.021Z,11.02
2022-10-22T06:13:51.813Z,11.36
2022-10-22T06:16:19.445Z,11.11
2022-10-22T06:18:46.803Z,10.57
2022-10-22T06:21:15.556Z,10.21
2022-10-22T06:23:43.749Z,10.25
2022-10-22T06:26:11.499Z,10.59
2022-10-22T06:28:39.158Z,10.81
2022-10-22T06:31:07.053Z,10.71
2022-10-22T06:33:37.181Z,11.28
2022-10-22T06:36:09.093Z,11.75
2022-10-22T06:38:36.856Z,11.90
2022-10-22T06:41:09.697Z,11.89
2022-10-22T06:43:37.347Z,11.46
2022-10-22T06:46:07.484Z,11.87
2022-10-22T06:48:36.107Z,12.17
2022-10-22T06:51:05.308Z,12.49
2022-10-22T06:53:33.115Z,12.81
2022-10-22T06:56:08.707Z,13.07
2022-10-22T06:58:36.515Z,13.46
2022-10-22T07:01:14.427Z,13.40
2022-10-22T07:03:42.437Z,13.21
2022-10-22T07:06:12.092Z,12.96
2022-10-22T07:08:40.113Z,13.22
2022-10-22T07:11:28.108Z,13.73
2022-10-22T07:13:57.116Z,13.59
2022-10-22T07:16:29.523Z,13.65
2022-10-22T07:19:00.926Z,13.48
2022-10-22T07:21:28.828Z,13.33
2022-10-22T07:23:56.671Z,13.57
2022-10-22T07:26:28.538Z,13.57
2022-10-22T07:28:56.642Z,13.65
2022-10-22T07:31:23.995Z,13.60
2022-10-22T07:33:51.351Z,13.53
2022-10-22T07:36:19.080Z,13.47
2022-10-22T07:38:47.991Z,13.83
2022-10-22T07:41:16.556Z,13.72
2022-10-22T07:43:44.431Z,13.80
2022-10-22T07:46:12.048Z,13.80
2022-10-22T07:48:39.522Z,13.74
2022-10-22T07:51:07.527Z,14.02
2022-10-22T07:53:34.876Z,14.00
2022-10-22T07:56:02.402Z,14.03
2022-10-22T07:58:32.773Z,14.30
2022-10-22T08:01:01.026Z,14.27
2022-10-22T08:03:29.787Z,14.42
2022-10-22T08:05:57.331Z,14.30
2022-10-22T08:08:28.311Z,14.79
2022-10-22T08:10:59.672Z,14.45
2022-10-22T08:13:28.427Z,14.75
2022-10-22T08:15:57.604Z,15.13
2022-10-22T08:18:25.848Z,15.63
2022-10-22T08:20:53.605Z,15.63
2022-10-22T08:23:25.846Z,15.78
2022-10-22T08:25:57.291Z,16.16
2022-10-22T08:28:24.968Z,16.07
2022-10-22T08:30:52.316Z,16.09
2022-10-22T08:33:20.023Z,16.20
2022-10-22T08:35:51.706Z,16.14
2022-10-22T08:38:19.665Z,16.64
2022-10-22T08:40:49.997Z,16.69
2022-10-22T08:43:42.332Z,16.79
2022-10-22T08:46:28.833Z,16.18
2022-10-22T08:48:58.322Z,16.59
2022-10-22T08:51:27.722Z,16.92
2022-10-22T08:54:11.751Z,16.73
2022-10-22T08:56:42.546Z,16.80
2022-10-22T08:59:44.665Z,16.21
2022-10-22T09:02:36.386Z,16.48
2022-10-22T09:05:42.552Z,16.80
2022-10-22T09:08:14.249Z,16.93
2022-10-22T09:10:46.964Z,16.97
2022-10-22T09:13:18.906Z,17.02
2022-10-22T09:15:51.774Z,17.10
2022-10-22T09:18:31.324Z,17.33
2022-10-22T09:21:07.347Z,17.17
2022-10-22T09:23:50.178Z,17.46
2022-10-22T09:26:17.752Z,17.29
2022-10-22T09:28:50.366Z,17.44
2022-10-22T09:31:18.208Z,17.80
2022-10-22T09:33:51.936Z,17.76
2022-10-22T09:36:22.585Z,17.76
2022-10-22T09:38:52.303Z,17.33
2022-10-22T09:41:21.498Z,17.31
2022-10-22T09:43:49.506Z,17.35
2022-10-22T09:46:24.270Z,17.15
2022-10-22T09:49:18.789Z,17.27
2022-10-22T09:51:54.098Z,17.31
2022-10-22T09:54:23.570Z,17.56
2022-10-22T09:57:16.824Z,17.58
2022-10-22T09:59:47.291Z,17.48
2022-10-22T10:02:37.542Z,17.76
2022-10-22T10:05:07.451Z,17.78
2022-10-22T10:07:35.964Z,17.80
2022-10-22T10:10:06.974Z,17.64
2022-10-22T10:12:47.773Z,17.87
2022-10-22T10:15:43.458Z,17.80
2022-10-22T10:18:30.696Z,17.69
2022-10-22T10:21:10.667Z,18.11
2022-10-22T10:24:00.287Z,18.07
2022-10-22T10:26:35.123Z,18.11
2022-10-22T10:29:30.553Z,18.30
2022-10-22T10:32:07.043Z,18.19
2022-10-22T10:34:51.941Z,18.13
2022-10-22T10:37:27.719Z,17.86
2022-10-22T10:40:40.134Z,18.14
2022-10-22T10:43:13.224Z,18.40
2022-10-22T10:46:19.604Z,18.28
2022-10-22T10:48:55.885Z,18.40
2022-10-22T10:51:50.466Z,18.43
2022-10-22T10:54:27.230Z,18.62
2022-10-22T10:57:02.509Z,18.36
2022-10-22T10:59:39.950Z,18.00
2022-10-22T11:02:46.166Z,18.39
2022-10-22T11:05:16.429Z,18.64
2022-10-22T11:07:54.909Z,18.56
2022-10-22T11:10:30.426Z,18.38
2022-10-22T11:12:59.355Z,18.38
2022-10-22T11:15:32.147Z,18.47
2022-10-22T11:18:04.916Z,18.32
2022-10-22T11:20:47.312Z,18.43
2022-10-22T11:23:20.926Z,18.26
2022-10-22T11:25:50.365Z,18.56
2022-10-22T11:28:29.155Z,18.44
2022-10-22T11:31:07.245Z,18.34
2022-10-22T11:33:46.317Z,18.64
2022-10-22T11:36:13.845Z,18.63
2022-10-22T11:38:41.511Z,18.91
2022-10-22T11:41:14.226Z,18.87
2022-10-22T11:44:19.264Z,18.94
2022-10-22T11:46:53.736Z,19.03
2022-10-22T11:49:40.142Z,19.03
2022-10-22T11:52:28.176Z,19.25
2022-10-22T11:54:57.928Z,19.26
2022-10-22T11:57:36.520Z,19.39
2022-10-22T12:00:31.453Z,19.30
2022-10-22T12:03:17.793Z,19.44
2022-10-22T12:05:46.235Z,19.60
2022-10-22T12:08:21.260Z,19.64
2022-10-22T12:11:04.442Z,19.84
2022-10-22T12:13:52.223Z,19.35
2022-10-22T12:16:32.212Z,19.30
2022-10-22T12:19:10.442Z,19.44
2022-10-22T12:21:38.964Z,18.80
2022-10-22T12:24:06.787Z,18.91
2022-10-22T12:26:35.486Z,19.06
2022-10-22T12:29:09.847Z,19.18
2022-10-22T12:31:39.222Z,19.21
2022-10-22T12:34:06.556Z,19.14
2022-10-22T12:36:36.208Z,19.13
2022-10-22T12:39:16.763Z,19.66
2022-10-22T12:41:44.933Z,19.99
2022-10-22T12:44:15.332Z,19.56
2022-10-22T12:46:44.015Z,17.23
2022-10-22T12:49:17.136Z,17.24
2022-10-22T12:51:46.409Z,16.90
2022-10-22T12:54:34.557Z,17.33
2022-10-22T12:57:02.361Z,17.18
2022-10-22T12:59:36.636Z,16.85
2022-10-22T13:02:23.936Z,16.39
2022-10-22T13:05:24.028Z,16.33
2022-10-22T13:08:13.495Z,16.98
2022-10-22T13:10:42.154Z,16.71
2022-10-22T13:13:30.515Z,16.42
2022-10-22T13:16:15.720Z,16.04
2022-10-22T13:18:44.330Z,16.09
2022-10-22T13:21:26.388Z,16.20
2022-10-22T13:24:01.870Z,16.10
2022-10-22T13:26:35.245Z,16.27
2022-10-22T13:29:09.644Z,16.22
2022-10-22T13:31:38.209Z,16.46
2022-10-22T13:34:11.762Z,16.14
2022-10-22T13:36:41.310Z,16.21
2022-10-22T13:39:17.511Z,15.83
2022-10-22T13:41:45.022Z,16.55
2022-10-22T13:44:12.681Z,16.78
2022-10-22T13:46:42.922Z,16.33
2022-10-22T13:49:22.530Z,16.47
2022-10-22T13:51:51.353Z,16.62
2022-10-22T13:54:24.058Z,16.38
2022-10-22T13:56:52.784Z,16.06
2022-10-22T13:59:22.950Z,16.38
2022-10-22T14:01:51.944Z,16.33
2022-10-22T14:04:19.593Z,15.68
2022-10-22T14:06:46.948Z,15.71
2022-10-22T14:09:15.579Z,16.61
2022-10-22T14:11:43.391Z,15.25
2022-10-22T14:14:14.292Z,16.00
2022-10-22T14:16:41.859Z,15.27
2022-10-22T14:19:15.640Z,15.60
2022-10-22T14:21:43.086Z,15.40
2022-10-22T14:24:13.141Z,15.71
2022-10-22T14:26:41.380Z,15.94
2022-10-22T14:29:10.361Z,15.38
2022-10-22T14:34:10.822Z,16.68
2022-10-22T14:36:38.411Z,16.75
2022-10-22T14:39:06.054Z,16.65
2022-10-22T14:41:33.440Z,16.63
2022-10-22T14:44:01.712Z,16.69
2022-10-22T14:46:29.742Z,16.28
2022-10-22T14:48:57.159Z,16.46
2022-10-22T14:51:24.668Z,16.62
2022-10-22T14:53:52.279Z,16.33
2022-10-22T14:56:23.053Z,16.38
2022-10-22T14:58:50.857Z,16.13
2022-10-22T15:01:18.495Z,16.06
2022-10-22T15:03:45.830Z,15.89
2022-10-22T15:06:13.456Z,15.72
2022-10-22T15:08:41.173Z,15.75
2022-10-22T15:11:11.852Z,15.66
2022-10-22T15:13:41.296Z,15.63
2022-10-22T15:16:10.806Z,15.47
2022-10-22T15:18:38.254Z,15.69
2022-10-22T15:21:17.104Z,15.40
2022-10-22T15:23:45.221Z,15.44
2022-10-22T15:26:13.301Z,15.79
2022-10-22T15:28:42.028Z,15.58
2022-10-22T15:31:12.835Z,15.29
2022-10-22T15:33:41.553Z,15.16
2022-10-22T15:36:11.526Z,15.07
2022-10-22T15:38:39.696Z,14.97
2022-10-22T15:41:10.053Z,15.07
2022-10-22T15:43:38.336Z,14.87
2022-10-22T15:46:14.549Z,14.66
2022-10-22T15:48:42.776Z,14.27
2022-10-22T15:51:16.028Z,15.30
2022-10-22T15:53:43.776Z,14.19
2022-10-22T15:56:14.579Z,13.46
2022-10-22T15:58:41.961Z,13.83
2022-10-22T16:01:11.889Z,14.31
2022-10-22T16:03:40.429Z,14.53
2022-10-22T16:06:09.172Z,14.10
2022-10-22T16:08:37.614Z,14.51
2022-10-22T16:11:05.732Z,14.23
2022-10-22T16:13:33.096Z,14.70
2022-10-22T16:16:05.228Z,14.95
2022-10-22T16:18:32.849Z,14.88
2022-10-22T16:21:00.544Z,14.87
2022-10-22T16:23:27.963Z,14.82
2022-10-22T16:25:55.593Z,14.71
2022-10-22T16:28:23.902Z,14.24
2022-10-22T16:30:52.689Z,14.69
2022-10-22T16:33:20.713Z,14.81
2022-10-22T16:35:48.474Z,14.69
2022-10-22T16:38:16.242Z,14.69
2022-10-22T16:40:44.390Z,14.50
2022-10-22T16:43:11.803Z,14.79
2022-10-22T16:45:39.123Z,14.99
2022-10-22T16:48:06.780Z,14.92
2022-10-22T16:50:34.145Z,14.92
2022-10-22T16:53:01.865Z,14.81
2022-10-22T16:55:29.571Z,14.36
2022-10-22T16:57:56.934Z,14.53
2022-10-22T17:00:24.674Z,14.47
2022-10-22T17:02:54.549Z,14.34
2022-10-22T17:05:22.787Z,13.85
2022-10-22T17:07:50.761Z,14.40
2022-10-22T17:10:20.650Z,14.56
2022-10-22T17:12:48.850Z,14.84
2022-10-22T17:15:16.498Z,14.62
2022-10-22T17:17:49.787Z,14.80
2022-10-22T17:20:18.229Z,13.93
2022-10-22T17:22:46.895Z,13.81
2022-10-22T17:25:22.919Z,13.69
2022-10-22T17:27:52.259Z,14.21
2022-10-22T17:30:23.508Z,13.62
2022-10-22T17:32:54.984Z,13.45
2022-10-22T17:35:22.905Z,13.27
2022-10-22T17:37:50.525Z,12.91
2022-10-22T17:40:18.602Z,12.90
2022-10-22T17:42:46.740Z,13.10
2022-10-22T17:45:17.215Z,14.19
2022-10-22T17:47:47.659Z,14.22
2022-10-22T17:50:15.310Z,13.27
2022-10-22T17:52:45.306Z,13.37
2022-10-22T17:55:13.474Z,13.18
2022-10-22T17:57:40.833Z,13.05
2022-10-22T18:00:09.231Z,12.96
2022-10-22T18:02:37.713Z,13.32
2022-10-22T18:05:05.945Z,12.39
2022-10-22T18:07:38.373Z,12.37
2022-10-22T18:10:06.876Z,12.19
2022-10-22T18:12:34.513Z,12.79
2022-10-22T18:15:02.468Z,12.79
2022-10-22T18:17:31.866Z,13.18
2022-10-22T18:20:01.046Z,12.38
2022-10-22T18:22:29.135Z,12.49
2022-10-22T18:24:56.866Z,12.58
2022-10-22T18:27:24.923Z,12.50
2022-10-22T18:29:53.558Z,12.20
2022-10-22T18:32:21.109Z,12.07
2022-10-22T18:34:48.921Z,11.86
2022-10-22T18:37:17.009Z,12.97
2022-10-22T18:39:45.182Z,12.13
2022-10-22T18:42:12.917Z,11.88
2022-10-22T18:44:40.976Z,11.90
2022-10-22T18:47:08.974Z,11.55
2022-10-22T18:49:36.761Z,11.38
2022-10-22T18:52:04.861Z,11.25
2022-10-22T18:54:32.686Z,11.43
2022-10-22T18:57:02.844Z,12.18
2022-10-22T18:59:31.671Z,12.73
2022-10-22T19:01:59.735Z,11.73
2022-10-22T19:04:36.785Z,12.26
2022-10-22T19:07:06.125Z,11.54
2022-10-22T19:09:33.610Z,12.36
2022-10-22T19:12:01.119Z,12.35
2022-10-22T19:14:28.776Z,12.85
2022-10-22T19:16:56.551Z,12.87
2022-10-22T19:19:24.628Z,13.45
2022-10-22T19:21:53.597Z,12.23
2022-10-22T19:24:21.259Z,11.48
2022-10-22T19:26:49.687Z,11.37
2022-10-22T19:29:19.447Z,11.17
2022-10-22T19:31:51.374Z,10.99
2022-10-22T19:34:20.014Z,11.14
2022-10-22T19:36:47.960Z,10.99
2022-10-22T19:39:16.934Z,10.85
2022-10-22T19:41:44.825Z,10.77
2022-10-22T19:44:12.666Z,10.76
2022-10-22T19:46:40.460Z,10.67
2022-10-22T19:49:08.127Z,10.70
2022-10-22T19:51:35.691Z,10.65
2022-10-22T19:54:08.063Z,10.59
2022-10-22T19:56:37.772Z,10.61
2022-10-22T19:59:06.213Z,10.66
2022-10-22T20:01:33.832Z,10.63
2022-10-22T20:04:01.830Z,10.94
2022-10-22T20:06:29.631Z,10.99
2022-10-22T20:08:57.522Z,10.62
2022-10-22T20:11:28.156Z,10.55
2022-10-22T20:13:57.122Z,11.80
2022-10-22T20:16:28.911Z,11.83
2022-10-22T20:19:01.025Z,10.53
2022-10-22T20:21:28.842Z,11.03
2022-10-22T20:23:57.843Z,10.53
2022-10-22T20:26:28.116Z,10.68
2022-10-22T20:28:57.257Z,10.54
2022-10-22T20:31:27.223Z,10.69
2022-10-22T20:33:59.569Z,11.06
2022-10-22T20:36:29.640Z,11.12
2022-10-22T20:39:06.332Z,10.88
2022-10-22T20:41:35.243Z,10.57
2022-10-22T20:44:03.085Z,10.38
2022-10-22T20:46:32.037Z,10.31
2022-10-22T20:49:16.838Z,10.41
2022-10-22T20:51:46.094Z,10.75
2022-10-22T20:54:14.860Z,11.01
2022-10-22T20:56:42.697Z,10.66
2022-10-22T20:59:11.996Z,10.81
2022-10-22T21:01:43.086Z,10.63
2022-10-22T21:04:10.781Z,11.02
2022-10-22T21:06:40.265Z,10.79
2022-10-22T21:09:12.594Z,10.61
2022-10-22T21:11:41.005Z,10.75
2022-10-22T21:14:11.151Z,10.93
2022-10-22T21:16:46.690Z,10.63
2022-10-22T21:19:14.297Z,10.57
2022-10-22T21:21:41.672Z,10.83
2022-10-22T21:24:09.614Z,10.61
2022-10-22T21:26:41.329Z,11.12
2022-10-22T21:29:09.812Z,10.99
2022-10-22T21:31:38.120Z,10.77
2022-10-22T21:34:05.470Z,10.70
2022-10-22T21:36:32.977Z,10.73
2022-10-22T21:39:01.191Z,10.48
2022-10-22T21:41:28.617Z,10.78
2022-10-22T21:43:56.351Z,11.14
2022-10-22T21:46:25.928Z,11.35
2022-10-22T21:49:02.269Z,10.84
2022-10-22T21:51:32.186Z,10.46
2022-10-22T21:54:00.185Z,10.27
2022-10-22T21:56:30.370Z,10.32
2022-10-22T21:58:58.113Z,10.34
2022-10-22T22:01:25.747Z,10.37
2022-10-22T22:03:53.640Z,10.26
2022-10-22T22:06:23.241Z,10.27
2022-10-22T22:08:52.728Z,10.57
2022-10-22T22:11:27.507Z,10.48
2022-10-22T22:13:56.049Z,10.50
2022-10-22T22:16:28.500Z,10.52
2022-10-22T22:18:58.273Z,10.49
2022-10-22T22:21:27.200Z,10.81
2022-10-22T22:23:54.595Z,10.66
2022-10-22T22:26:28.603Z,10.59
2022-10-22T22:28:59.107Z,10.54
2022-10-22T22:31:32.301Z,10.66
2022-10-22T22:34:01.591Z,10.84
2022-10-22T22:36:33.717Z,10.78
2022-10-22T22:39:01.402Z,10.54
2022-10-22T22:41:28.756Z,10.55
2022-10-22T22:46:28.658Z,10.74
2022-10-22T22:48:56.025Z,10.69
2022-10-22T22:51:23.445Z,10.61
2022-10-22T22:53:51.529Z,10.74
2022-10-22T22:56:24.309Z,10.81
2022-10-22T22:58:52.147Z,10.80
2022-10-22T23:01:28.171Z,11.20
2022-10-22T23:04:04.239Z,11.29
2022-10-22T23:06:33.967Z,11.31
2022-10-22T23:09:02.473Z,11.19
2022-10-22T23:11:30.002Z,11.36
2022-10-22T23:14:02.620Z,11.39
2022-10-22T23:16:33.421Z,11.68
2022-10-22T23:19:01.160Z,11.41
2022-10-22T23:21:30.867Z,11.38
2022-10-22T23:24:01.430Z,11.87
2022-10-22T23:26:35.437Z,11.60
2022-10-22T23:29:05.376Z,11.76
2022-10-22T23:31:32.887Z,11.88
2022-10-22T23:34:00.481Z,11.81
2022-10-22T23:36:28.393Z,11.73
2022-10-22T23:38:56.187Z,11.67
2022-10-22T23:41:23.570Z,12.52
2022-10-22T23:43:51.379Z,12.83
2022-10-22T23:46:18.824Z,12.48
2022-10-22T23:48:46.245Z,12.92
2022-10-22T23:51:15.439Z,12.54
2022-10-22T23:53:44.111Z,12.72
2022-10-22T23:56:17.020Z,12.82
2022-10-22T23:58:45.064Z,12.17
